METAR Data
IDs: Format: Raw Decoded Include TAF

Data at: 1300 UTC 07 Jul 2020

KBGF 071255Z AUTO 00000KT 10SM CLR 25/21 A3002 RMK A01
KBGF 071235Z AUTO 00000KT 10SM CLR 23/21 A3002 RMK A01
KBGF 071215Z AUTO 00000KT 10SM FEW120 23/21 A3001 RMK A01
KBGF 071155Z AUTO 00000KT 10SM FEW120 22/21 A3001 RMK A01
KBGF 071135Z AUTO 00000KT 10SM CLR 22/20 A3000 RMK A01
KBGF 071115Z AUTO 00000KT 10SM CLR 22/20 A3000 RMK A01
KBGF 071055Z AUTO 00000KT 10SM CLR 22/20 A3000 RMK A01
KBGF 071035Z AUTO 00000KT 10SM CLR 22/20 A3000 RMK A01
KBGF 071015Z AUTO 00000KT 10SM CLR 21/20 A3000 RMK A01
KBGF 070955Z AUTO 13004KT 10SM CLR 22/20 A3000 RMK A01
KBGF 070935Z AUTO 13005KT 10SM CLR 22/20 A3000 RMK A01
KBGF 070915Z AUTO 13003KT 10SM CLR 22/20 A3000 RMK A01
KBGF 070855Z AUTO 11004KT 10SM CLR 22/20 A3000 RMK A01
KBGF 070835Z AUTO 00000KT 10SM CLR 22/20 A2999 RMK A01
KBGF 070815Z AUTO 13004KT 10SM CLR 22/20 A2999 RMK A01
KBGF 070755Z AUTO 00000KT 10SM CLR 22/21 A2999 RMK A01
KBGF 070735Z AUTO 00000KT 10SM CLR 22/20 A2999 RMK A01
KBGF 070715Z AUTO 00000KT 10SM CLR 23/21 A2999 RMK A01
KBGF 070655Z AUTO 00000KT 10SM CLR 23/21 A3000 RMK A01
KBGF 070635Z AUTO 00000KT 4SM BR CLR 23/21 A3000 RMK A01
KBGF 070615Z AUTO 13004KT 10SM CLR 23/21 A2999 RMK A01
KBGF 070555Z AUTO 12005KT 10SM CLR 23/21 A3000 RMK A01
KBGF 070535Z AUTO 09004KT 10SM CLR 23/21 A3001 RMK A01
KBGF 070515Z AUTO 09003KT 10SM FEW060 FEW100 23/21 A3001 RMK A01
KBGF 070455Z AUTO 12006KT 10SM BKN065 BKN085 23/21 A3002 RMK A01
KBGF 070435Z AUTO 13006KT 10SM FEW041 BKN047 OVC065 24/21 A3002 RMK A01
KBGF 070415Z AUTO 15005KT 10SM BKN041 OVC050 24/22 A3002 RMK A01
KBGF 070355Z AUTO 16003KT 10SM SCT040 BKN049 OVC070 24/22 A3002 RMK A01
KBGF 070335Z AUTO 13005KT 10SM FEW028 SCT043 OVC065 24/22 A3001 RMK A01
KBGF 070315Z AUTO 10004KT 10SM FEW031 BKN050 OVC075 25/21 A3001 RMK A01
KBGF 070255Z AUTO 13009KT 9SM FEW039 BKN046 OVC055 26/21 A3001 RMK A01
KBGF 070235Z AUTO 00000KT 10SM BKN046 BKN060 OVC090 25/22 A2999 RMK A01
KBGF 070215Z AUTO 00000KT 10SM SCT060 BKN085 26/22 A2999 RMK A01
KBGF 070155Z AUTO 00000KT 10SM BKN080 26/22 A2999 RMK A01
KBGF 070135Z AUTO 00000KT 10SM FEW065 OVC080 27/22 A2999 RMK A01
KBGF 070115Z AUTO 00000KT 10SM BKN060 OVC075 27/21 A2998 RMK A01
KBGF 070055Z AUTO 00000KT 10SM BKN065 OVC075 28/21 A2998 RMK A01
KBGF 070035Z AUTO 00000KT 10SM SCT070 29/20 A2997 RMK A01
KBGF 070015Z AUTO 00000KT 10SM CLR 29/20 A2997 RMK A01
KBGF 062355Z AUTO 00000KT 10SM CLR 29/20 A2997 RMK A01
KBGF 062335Z AUTO 13003KT 10SM CLR 29/20 A2996 RMK A01
KBGF 062315Z AUTO 14003KT 10SM CLR 30/19 A2996 RMK A01
KBGF 062250Z AUTO 14005KT 10SM CLR 30/19 A2997 RMK A01
KBGF 062235Z AUTO 13004KT 10SM CLR 30/19 A2997 RMK A01
KBGF 062215Z AUTO 00000KT 10SM CLR 30/19 A2997 RMK A01
KBGF 062155Z AUTO 17006KT 10SM CLR 30/20 A2998 RMK A01
KBGF 062135Z AUTO 15006KT 10SM CLR 30/20 A2998 RMK A01
KBGF 062115Z AUTO 14005KT 10SM CLR 30/20 A2998 RMK A01
KBGF 062055Z AUTO 13008KT 10SM CLR 30/19 A2998 RMK A01
KBGF 062035Z AUTO 16006KT 10SM CLR 29/19 A2999 RMK A01
KBGF 062015Z AUTO 16007KT 10SM CLR 28/19 A2999 RMK A01
KBGF 061955Z AUTO 18006KT 10SM CLR 28/20 A3000 RMK A01
KBGF 061935Z AUTO 16006KT 10SM CLR 29/20 A3000 RMK A01
KBGF 061915Z AUTO 16007KT 10SM CLR 29/19 A3000 RMK A01
KBGF 061855Z AUTO 15007KT 10SM CLR 29/19 A3001 RMK A01
KBGF 061835Z AUTO 15008KT 10SM CLR 30/18 A3002 RMK A01
KBGF 061815Z AUTO 15008G14KT 10SM FEW038 FEW049 29/19 A3002 RMK A01
KBGF 061755Z AUTO 18008KT 10SM SCT038 SCT049 29/20 A3002 RMK A01
KBGF 061735Z AUTO 13007KT 10SM FEW042 30/20 A3003 RMK A01
KBGF 061715Z AUTO 11009KT 10SM FEW034 30/20 A3003 RMK A01
KBGF 061655Z AUTO 10008KT 10SM SCT033 30/21 A3004 RMK A01
KBGF 061635Z AUTO 14006KT 10SM CLR 29/21 A3004 RMK A01
KBGF 061610Z AUTO VRB04G11KT 10SM FEW027 29/22 A3004 RMK A01
KBGF 061555Z AUTO 00000KT 10SM CLR 28/22 A3005 RMK A01
KBGF 061535Z AUTO 15006KT 10SM CLR 27/21 A3005 RMK A01
KBGF 061515Z AUTO 13007KT 10SM CLR 27/21 A3005 RMK A01
KBGF 061455Z AUTO 15004KT 10SM CLR 27/21 A3005 RMK A01
KBGF 061435Z AUTO 13006KT 10SM CLR 27/21 A3004 RMK A01
KBGF 061415Z AUTO 13004KT 10SM CLR 27/21 A3004 RMK A01
KBGF 061355Z AUTO 00000KT 10SM SCT080 26/21 A3004 RMK A01
KBGF 061335Z AUTO 15005KT 10SM SCT085 26/21 A3004 RMK A01
KBGF 061315Z AUTO 14006KT 10SM CLR 26/21 A3004 RMK A01
KBGF 061255Z AUTO 14007KT 10SM CLR 26/21 A3003 RMK A01
KBGF 061235Z AUTO 13007KT 10SM CLR 25/21 A3003 RMK A01
KBGF 061215Z AUTO VRB05KT 10SM CLR 25/20 A3002 RMK A01
KBGF 061155Z AUTO 11005KT 10SM CLR 24/20 A3001 RMK A01
KBGF 061135Z AUTO 13006KT 10SM CLR 24/20 A3000 RMK A01
KBGF 061115Z AUTO 15005KT 10SM CLR 23/20 A2999 RMK A01
KBGF 061055Z AUTO 17004KT 10SM CLR 23/20 A2999 RMK A01
KBGF 061035Z AUTO 14005KT 10SM CLR 23/20 A2998 RMK A01
KBGF 061015Z AUTO 14003KT 10SM CLR 23/20 A2998 RMK A01
KBGF 060955Z AUTO 13003KT 10SM CLR 23/20 A2998 RMK A01
KBGF 060935Z AUTO 00000KT 10SM CLR 23/20 A2997 RMK A01
KBGF 060915Z AUTO 13004KT 10SM CLR 23/20 A2996 RMK A01
KBGF 060855Z AUTO 12004KT 10SM CLR 23/20 A2996 RMK A01
KBGF 060835Z AUTO 10003KT 10SM CLR 23/20 A2995 RMK A01
KBGF 060815Z AUTO 00000KT 10SM CLR 23/20 A2995 RMK A01
KBGF 060750Z AUTO 00000KT 10SM FEW055 22/21 A2995 RMK A01
KBGF 060735Z AUTO 00000KT 10SM CLR 22/21 A2995 RMK A01
KBGF 060715Z AUTO 00000KT 9SM CLR 22/21 A2995 RMK A01
KBGF 060655Z AUTO 00000KT 10SM CLR 22/21 A2995 RMK A01
KBGF 060635Z AUTO 00000KT 10SM CLR 22/21 A2995 RMK A01
KBGF 060615Z AUTO 00000KT 10SM CLR 22/21 A2996 RMK A01
KBGF 060555Z AUTO 00000KT 10SM CLR 23/21 A2997 RMK A01
KBGF 060535Z AUTO 00000KT 10SM CLR 23/21 A2997 RMK A01
KBGF 060515Z AUTO 00000KT 10SM CLR 23/21 A2997 RMK A01
KBGF 060455Z AUTO 00000KT 10SM FEW047 23/21 A2997 RMK A01
KBGF 060435Z AUTO 00000KT 10SM FEW049 24/21 A2997 RMK A01
KBGF 060415Z AUTO 00000KT 10SM CLR 23/21 A2998 RMK A01
KBGF 060355Z AUTO 00000KT 10SM CLR 23/21 A2998 RMK A01
KBGF 060335Z AUTO 00000KT 10SM FEW120 24/21 A2998 RMK A01
KBGF 060315Z AUTO 00000KT 10SM SCT120 24/21 A2999 RMK A01
KBGF 060255Z AUTO 00000KT 10SM FEW048 24/21 A2999 RMK A01
KBGF 060235Z AUTO 29004KT 10SM SCT047 SCT070 BKN110 24/21 A2999 RMK A01
KBGF 060215Z AUTO 26005KT 10SM FEW043 SCT050 BKN110 25/21 A2998 RMK A01
KBGF 060155Z AUTO 28005KT 10SM BKN050 BKN065 OVC075 25/21 A2997 RMK A01
KBGF 060135Z AUTO 27006G13KT 10SM SCT055 BKN065 BKN075 25/22 A2998 RMK A01
KBGF 060115Z AUTO 23006KT 10SM FEW060 25/23 A2997 RMK A01